sensor_id;sensor_type;location;lat;lon;timestamp;pressure;altitude;pressure_sealevel;temperature;humidity
58471;BME280;44258;51.288;12.068;2023-01-15T00:01:25;98854.88;;;9.12;64.84
58471;BME280;44258;51.288;12.068;2023-01-15T00:03:56;98855.22;;;9.07;65.20
58471;BME280;44258;51.288;12.068;2023-01-15T00:06:23;98862.81;;;9.13;65.23
58471;BME280;44258;51.288;12.068;2023-01-15T00:08:51;98850.78;;;9.19;65.05
58471;BME280;44258;51.288;12.068;2023-01-15T00:11:18;98852.47;;;9.20;65.02
58471;BME280;44258;51.288;12.068;2023-01-15T00:13:45;98844.78;;;9.15;65.21
58471;BME280;44258;51.288;12.068;2023-01-15T00:16:14;98846.72;;;9.13;65.32
58471;BME280;44258;51.288;12.068;2023-01-15T00:18:42;98841.81;;;9.07;65.63
58471;BME280;44258;51.288;12.068;2023-01-15T00:21:11;98841.91;;;9.19;65.56
58471;BME280;44258;51.288;12.068;2023-01-15T00:23:38;98825.34;;;9.25;65.84
58471;BME280;44258;51.288;12.068;2023-01-15T00:26:27;98814.47;;;9.39;65.44
58471;BME280;44258;51.288;12.068;2023-01-15T00:29:12;98811.97;;;9.12;66.46
58471;BME280;44258;51.288;12.068;2023-01-15T00:31:39;98808.25;;;9.26;66.12
58471;BME280;44258;51.288;12.068;2023-01-15T00:34:05;98815.47;;;9.25;66.14
58471;BME280;44258;51.288;12.068;2023-01-15T00:36:33;98801.59;;;9.31;66.13
58471;BME280;44258;51.288;12.068;2023-01-15T00:39:02;98806.75;;;9.34;65.90
58471;BME280;44258;51.288;12.068;2023-01-15T00:41:29;98798.44;;;9.38;65.99
58471;BME280;44258;51.288;12.068;2023-01-15T00:43:55;98789.13;;;9.43;65.75
58471;BME280;44258;51.288;12.068;2023-01-15T00:46:22;98778.75;;;9.50;65.54
58471;BME280;44258;51.288;12.068;2023-01-15T00:48:49;98765.59;;;9.47;65.59
58471;BME280;44258;51.288;12.068;2023-01-15T00:51:15;98755.88;;;9.33;66.21
58471;BME280;44258;51.288;12.068;2023-01-15T00:53:43;98760.88;;;9.38;66.05
58471;BME280;44258;51.288;12.068;2023-01-15T00:56:09;98758.13;;;9.50;65.50
58471;BME280;44258;51.288;12.068;2023-01-15T00:58:36;98762.91;;;9.47;65.79
58471;BME280;44258;51.288;12.068;2023-01-15T01:01:05;98748.06;;;9.30;66.41
58471;BME280;44258;51.288;12.068;2023-01-15T01:03:32;98762.94;;;9.34;66.37
58471;BME280;44258;51.288;12.068;2023-01-15T01:05:59;98765.44;;;9.48;66.01
58471;BME280;44258;51.288;12.068;2023-01-15T01:08:27;98757.19;;;9.51;65.85
58471;BME280;44258;51.288;12.068;2023-01-15T01:13:30;98761.22;;;9.68;65.46
58471;BME280;44258;51.288;12.068;2023-01-15T01:15:56;98765.28;;;9.74;65.29
58471;BME280;44258;51.288;12.068;2023-01-15T01:18:23;98756.84;;;9.79;64.98
58471;BME280;44258;51.288;12.068;2023-01-15T01:20:49;98752.59;;;9.76;65.12
58471;BME280;44258;51.288;12.068;2023-01-15T01:23:16;98766.84;;;9.77;65.01
58471;BME280;44258;51.288;12.068;2023-01-15T01:25:43;98767.22;;;9.72;65.19
58471;BME280;44258;51.288;12.068;2023-01-15T01:28:10;98763.44;;;9.74;65.15
58471;BME280;44258;51.288;12.068;2023-01-15T01:30:41;98762.47;;;9.76;65.16
58471;BME280;44258;51.288;12.068;2023-01-15T01:33:07;98752.59;;;9.76;65.24
58471;BME280;44258;51.288;12.068;2023-01-15T01:35:34;98748.69;;;9.91;64.85
58471;BME280;44258;51.288;12.068;2023-01-15T01:38:01;98740.03;;;9.88;64.94
58471;BME280;44258;51.288;12.068;2023-01-15T01:40:28;98741.25;;;9.84;65.10
58471;BME280;44258;51.288;12.068;2023-01-15T01:42:55;98730.63;;;9.93;64.75
58471;BME280;44258;51.288;12.068;2023-01-15T01:45:25;98725.66;;;10.00;64.55
58471;BME280;44258;51.288;12.068;2023-01-15T01:47:57;98727.09;;;9.82;65.19
58471;BME280;44258;51.288;12.068;2023-01-15T01:50:25;98722.22;;;9.76;65.49
58471;BME280;44258;51.288;12.068;2023-01-15T01:52:55;98712.31;;;9.87;65.26
58471;BME280;44258;51.288;12.068;2023-01-15T01:55:25;98709.88;;;9.84;65.45
58471;BME280;44258;51.288;12.068;2023-01-15T01:57:55;98697.81;;;9.67;65.51
58471;BME280;44258;51.288;12.068;2023-01-15T02:00:23;98697.09;;;9.88;65.45
58471;BME280;44258;51.288;12.068;2023-01-15T02:02:51;98684.03;;;9.72;65.88
58471;BME280;44258;51.288;12.068;2023-01-15T02:05:26;98688.41;;;9.73;65.80
58471;BME280;44258;51.288;12.068;2023-01-15T02:07:55;98702.44;;;9.88;65.29
58471;BME280;44258;51.288;12.068;2023-01-15T02:10:22;98692.91;;;9.95;65.09
58471;BME280;44258;51.288;12.068;2023-01-15T02:12:54;98685.34;;;9.89;65.33
58471;BME280;44258;51.288;12.068;2023-01-15T02:15:28;98683.16;;;10.05;64.86
58471;BME280;44258;51.288;12.068;2023-01-15T02:18:04;98692.31;;;9.91;65.36
58471;BME280;44258;51.288;12.068;2023-01-15T02:20:37;98676.94;;;10.05;64.94
58471;BME280;44258;51.288;12.068;2023-01-15T02:23:19;98670.44;;;10.07;64.92
58471;BME280;44258;51.288;12.068;2023-01-15T02:25:57;98660.34;;;10.00;65.01
58471;BME280;44258;51.288;12.068;2023-01-15T02:28:31;98667.41;;;10.01;64.96
58471;BME280;44258;51.288;12.068;2023-01-15T02:31:03;98652.75;;;10.16;64.31
58471;BME280;44258;51.288;12.068;2023-01-15T02:33:34;98665.06;;;10.19;64.74
58471;BME280;44258;51.288;12.068;2023-01-15T02:36:02;98656.03;;;10.20;65.06
58471;BME280;44258;51.288;12.068;2023-01-15T02:38:35;98648.22;;;10.05;65.34
58471;BME280;44258;51.288;12.068;2023-01-15T02:41:06;98647.16;;;9.85;65.91
58471;BME280;44258;51.288;12.068;2023-01-15T02:43:44;98655.22;;;9.97;65.41
58471;BME280;44258;51.288;12.068;2023-01-15T02:46:13;98656.19;;;10.07;65.82
58471;BME280;44258;51.288;12.068;2023-01-15T02:48:42;98658.63;;;10.10;65.74
58471;BME280;44258;51.288;12.068;2023-01-15T02:51:12;98657.84;;;10.19;65.80
58471;BME280;44258;51.288;12.068;2023-01-15T02:53:42;98655.94;;;9.99;67.00
58471;BME280;44258;51.288;12.068;2023-01-15T02:56:13;98657.41;;;10.14;66.88
58471;BME280;44258;51.288;12.068;2023-01-15T02:58:43;98661.19;;;10.00;67.96
58471;BME280;44258;51.288;12.068;2023-01-15T03:01:14;98647.16;;;10.08;67.63
58471;BME280;44258;51.288;12.068;2023-01-15T03:03:52;98651.31;;;10.01;68.27
58471;BME280;44258;51.288;12.068;2023-01-15T03:06:26;98651.06;;;10.04;68.31
58471;BME280;44258;51.288;12.068;2023-01-15T03:08:58;98660.47;;;9.98;68.81
58471;BME280;44258;51.288;12.068;2023-01-15T03:11:25;98643.25;;;10.01;68.87
58471;BME280;44258;51.288;12.068;2023-01-15T03:13:57;98639.09;;;9.97;69.00
58471;BME280;44258;51.288;12.068;2023-01-15T03:16:33;98640.63;;;10.22;68.10
58471;BME280;44258;51.288;12.068;2023-01-15T03:19:04;98628.94;;;10.11;68.80
58471;BME280;44258;51.288;12.068;2023-01-15T03:21:40;98639.78;;;10.21;68.40
58471;BME280;44258;51.288;12.068;2023-01-15T03:24:12;98648.06;;;10.29;68.04
58471;BME280;44258;51.288;12.068;2023-01-15T03:26:40;98641.63;;;10.21;68.31
58471;BME280;44258;51.288;12.068;2023-01-15T03:29:09;98635.41;;;10.20;68.40
58471;BME280;44258;51.288;12.068;2023-01-15T03:31:38;98641.28;;;10.14;68.75
58471;BME280;44258;51.288;12.068;2023-01-15T03:34:05;98631.84;;;10.20;68.77
58471;BME280;44258;51.288;12.068;2023-01-15T03:36:32;98634.53;;;10.20;68.56
58471;BME280;44258;51.288;12.068;2023-01-15T03:38:59;98635.88;;;10.25;68.39
58471;BME280;44258;51.288;12.068;2023-01-15T03:41:32;98628.94;;;10.23;68.57
58471;BME280;44258;51.288;12.068;2023-01-15T03:44:05;98638.66;;;10.35;67.99
58471;BME280;44258;51.288;12.068;2023-01-15T03:46:58;98626.34;;;10.32;68.06
58471;BME280;44258;51.288;12.068;2023-01-15T03:49:38;98625.25;;;10.24;68.31
58471;BME280;44258;51.288;12.068;2023-01-15T03:52:15;98629.03;;;10.21;68.63
58471;BME280;44258;51.288;12.068;2023-01-15T03:54:48;98633.78;;;10.29;68.26
58471;BME280;44258;51.288;12.068;2023-01-15T03:57:22;98677.91;;;10.15;69.86
58471;BME280;44258;51.288;12.068;2023-01-15T03:59:53;98702.94;;;9.82;72.03
58471;BME280;44258;51.288;12.068;2023-01-15T04:02:26;98716.97;;;9.74;72.92
58471;BME280;44258;51.288;12.068;2023-01-15T04:04:56;98713.53;;;9.72;72.82
58471;BME280;44258;51.288;12.068;2023-01-15T04:07:24;98703.06;;;9.80;72.03
58471;BME280;44258;51.288;12.068;2023-01-15T04:09:52;98701.97;;;9.71;72.09
58471;BME280;44258;51.288;12.068;2023-01-15T04:12:19;98698.16;;;9.74;71.90
58471;BME280;44258;51.288;12.068;2023-01-15T04:14:46;98699.38;;;9.59;72.24
58471;BME280;44258;51.288;12.068;2023-01-15T04:17:13;98699.50;;;9.68;72.01
58471;BME280;44258;51.288;12.068;2023-01-15T04:19:41;98706.69;;;9.79;71.41
58471;BME280;44258;51.288;12.068;2023-01-15T04:22:09;98708.53;;;9.79;71.43
58471;BME280;44258;51.288;12.068;2023-01-15T04:24:37;98712.06;;;9.79;71.28
58471;BME280;44258;51.288;12.068;2023-01-15T04:27:03;98711.47;;;9.64;72.10
58471;BME280;44258;51.288;12.068;2023-01-15T04:29:30;98714.50;;;9.60;72.52
58471;BME280;44258;51.288;12.068;2023-01-15T04:31:56;98714.72;;;9.57;73.59
58471;BME280;44258;51.288;12.068;2023-01-15T04:34:23;98715.97;;;9.64;73.16
58471;BME280;44258;51.288;12.068;2023-01-15T04:36:55;98719.00;;;9.48;73.75
58471;BME280;44258;51.288;12.068;2023-01-15T04:39:22;98718.88;;;9.49;73.68
58471;BME280;44258;51.288;12.068;2023-01-15T04:41:49;98728.06;;;9.23;75.15
58471;BME280;44258;51.288;12.068;2023-01-15T04:44:34;98727.59;;;9.29;74.46
58471;BME280;44258;51.288;12.068;2023-01-15T04:47:00;98727.66;;;9.16;75.55
58471;BME280;44258;51.288;12.068;2023-01-15T04:49:30;98728.38;;;9.18;75.21
58471;BME280;44258;51.288;12.068;2023-01-15T04:51:58;98739.81;;;9.09;75.58
58471;BME280;44258;51.288;12.068;2023-01-15T04:54:24;98745.38;;;8.94;75.64
58471;BME280;44258;51.288;12.068;2023-01-15T04:56:53;98762.53;;;8.31;75.79
58471;BME280;44258;51.288;12.068;2023-01-15T04:59:21;98792.06;;;7.40;76.64
58471;BME280;44258;51.288;12.068;2023-01-15T05:01:49;98802.47;;;7.17;76.70
58471;BME280;44258;51.288;12.068;2023-01-15T05:04:16;98818.91;;;6.84;77.13
58471;BME280;44258;51.288;12.068;2023-01-15T05:06:43;98823.22;;;6.86;76.41
58471;BME280;44258;51.288;12.068;2023-01-15T05:09:12;98814.66;;;6.67;76.73
58471;BME280;44258;51.288;12.068;2023-01-15T05:11:38;98824.88;;;6.74;77.44
58471;BME280;44258;51.288;12.068;2023-01-15T05:14:06;98825.41;;;6.80;76.55
58471;BME280;44258;51.288;12.068;2023-01-15T05:16:33;98820.59;;;6.99;75.07
58471;BME280;44258;51.288;12.068;2023-01-15T05:19:01;98812.97;;;6.93;75.54
58471;BME280;44258;51.288;12.068;2023-01-15T05:21:34;98823.63;;;7.07;74.59
58471;BME280;44258;51.288;12.068;2023-01-15T05:24:02;98834.34;;;7.20;73.96
58471;BME280;44258;51.288;12.068;2023-01-15T05:26:32;98832.88;;;7.29;73.34
58471;BME280;44258;51.288;12.068;2023-01-15T05:29:00;98842.06;;;6.98;73.55
58471;BME280;44258;51.288;12.068;2023-01-15T05:31:28;98829.75;;;6.53;75.38
58471;BME280;44258;51.288;12.068;2023-01-15T05:33:55;98844.31;;;6.77;74.87
58471;BME280;44258;51.288;12.068;2023-01-15T05:36:26;98851.41;;;7.05;73.87
58471;BME280;44258;51.288;12.068;2023-01-15T05:38:53;98851.81;;;7.26;72.65
58471;BME280;44258;51.288;12.068;2023-01-15T05:41:22;98857.88;;;7.15;72.88
58471;BME280;44258;51.288;12.068;2023-01-15T05:44:10;98858.84;;;7.00;73.38
58471;BME280;44258;51.288;12.068;2023-01-15T05:46:38;98880.63;;;7.35;72.36
58471;BME280;44258;51.288;12.068;2023-01-15T05:49:09;98879.38;;;7.53;71.16
58471;BME280;44258;51.288;12.068;2023-01-15T05:51:37;98882.66;;;7.44;71.31
58471;BME280;44258;51.288;12.068;2023-01-15T05:54:05;98895.03;;;7.60;70.90
58471;BME280;44258;51.288;12.068;2023-01-15T05:56:34;98900.47;;;7.58;70.41
58471;BME280;44258;51.288;12.068;2023-01-15T05:59:00;98902.03;;;7.48;70.96
58471;BME280;44258;51.288;12.068;2023-01-15T06:01:28;98909.09;;;7.49;70.59
58471;BME280;44258;51.288;12.068;2023-01-15T06:03:57;98912.09;;;7.44;70.98
58471;BME280;44258;51.288;12.068;2023-01-15T06:06:23;98917.03;;;7.50;70.46
58471;BME280;44258;51.288;12.068;2023-01-15T06:08:50;98916.53;;;7.58;69.71
58471;BME280;44258;51.288;12.068;2023-01-15T06:11:16;98907.84;;;7.54;69.83
58471;BME280;44258;51.288;12.068;2023-01-15T06:13:46;98921.03;;;7.58;69.92
58471;BME280;44258;51.288;12.068;2023-01-15T06:16:12;98909.56;;;7.56;70.07
58471;BME280;44258;51.288;12.068;2023-01-15T06:18:41;98917.00;;;7.38;70.51
58471;BME280;44258;51.288;12.068;2023-01-15T06:21:11;98912.53;;;7.51;70.25
58471;BME280;44258;51.288;12.068;2023-01-15T06:23:38;98901.41;;;7.57;69.55
58471;BME280;44258;51.288;12.068;2023-01-15T06:26:08;98910.94;;;7.21;70.37
58471;BME280;44258;51.288;12.068;2023-01-15T06:28:35;98909.47;;;7.30;70.16
58471;BME280;44258;51.288;12.068;2023-01-15T06:31:04;98906.84;;;7.16;70.03
58471;BME280;44258;51.288;12.068;2023-01-15T06:33:30;98903.84;;;6.93;69.76
58471;BME280;44258;51.288;12.068;2023-01-15T06:36:01;98914.16;;;6.70;68.78
58471;BME280;44258;51.288;12.068;2023-01-15T06:38:28;98907.84;;;6.71;68.64
58471;BME280;44258;51.288;12.068;2023-01-15T06:40:57;98918.38;;;6.60;68.16
58471;BME280;44258;51.288;12.068;2023-01-15T06:43:23;98923.81;;;6.44;67.73
58471;BME280;44258;51.288;12.068;2023-01-15T06:46:08;98930.38;;;6.39;67.72
58471;BME280;44258;51.288;12.068;2023-01-15T06:48:55;98934.75;;;6.25;67.17
58471;BME280;44258;51.288;12.068;2023-01-15T06:51:23;98938.00;;;6.45;67.09
58471;BME280;44258;51.288;12.068;2023-01-15T06:53:50;98943.44;;;6.43;66.61
58471;BME280;44258;51.288;12.068;2023-01-15T06:56:16;98939.63;;;6.47;66.75
58471;BME280;44258;51.288;12.068;2023-01-15T06:58:43;98928.16;;;6.31;67.15
58471;BME280;44258;51.288;12.068;2023-01-15T07:01:11;98931.47;;;6.06;67.62
58471;BME280;44258;51.288;12.068;2023-01-15T07:03:38;98942.84;;;6.24;67.31
58471;BME280;44258;51.288;12.068;2023-01-15T07:06:08;98958.28;;;6.33;66.92
58471;BME280;44258;51.288;12.068;2023-01-15T07:08:37;98966.19;;;6.20;67.64
58471;BME280;44258;51.288;12.068;2023-01-15T07:11:06;98942.78;;;6.25;67.58
58471;BME280;44258;51.288;12.068;2023-01-15T07:13:33;98947.06;;;6.42;67.42
58471;BME280;44258;51.288;12.068;2023-01-15T07:16:00;98978.25;;;6.42;67.60
58471;BME280;44258;51.288;12.068;2023-01-15T07:18:29;98973.56;;;6.45;67.68
58471;BME280;44258;51.288;12.068;2023-01-15T07:20:56;98983.22;;;6.48;67.48
58471;BME280;44258;51.288;12.068;2023-01-15T07:23:24;98971.97;;;6.57;66.92
58471;BME280;44258;51.288;12.068;2023-01-15T07:25:52;98987.13;;;6.42;67.76
58471;BME280;44258;51.288;12.068;2023-01-15T07:28:20;98988.56;;;6.48;67.63
58471;BME280;44258;51.288;12.068;2023-01-15T07:30:46;98985.78;;;6.64;67.30
58471;BME280;44258;51.288;12.068;2023-01-15T07:33:13;98962.41;;;6.53;67.39
58471;BME280;44258;51.288;12.068;2023-01-15T07:35:39;98985.28;;;6.28;67.46
58471;BME280;44258;51.288;12.068;2023-01-15T07:38:06;98982.81;;;6.25;66.62
58471;BME280;44258;51.288;12.068;2023-01-15T07:40:33;98979.66;;;6.33;66.52
58471;BME280;44258;51.288;12.068;2023-01-15T07:43:01;98983.84;;;6.37;66.52
58471;BME280;44258;51.288;12.068;2023-01-15T07:45:45;98980.94;;;6.42;66.28
58471;BME280;44258;51.288;12.068;2023-01-15T07:48:29;98979.16;;;6.26;65.57
58471;BME280;44258;51.288;12.068;2023-01-15T07:51:14;98977.50;;;6.40;65.24
58471;BME280;44258;51.288;12.068;2023-01-15T07:53:40;98980.53;;;6.33;64.84
58471;BME280;44258;51.288;12.068;2023-01-15T07:56:07;98984.91;;;6.34;64.70
58471;BME280;44258;51.288;12.068;2023-01-15T07:58:35;98984.91;;;6.34;64.91
58471;BME280;44258;51.288;12.068;2023-01-15T08:01:04;98969.75;;;6.35;64.81
58471;BME280;44258;51.288;12.068;2023-01-15T08:03:30;98980.69;;;6.30;64.81
58471;BME280;44258;51.288;12.068;2023-01-15T08:05:57;98974.03;;;6.23;65.25
58471;BME280;44258;51.288;12.068;2023-01-15T08:08:23;98971.06;;;6.28;64.72
58471;BME280;44258;51.288;12.068;2023-01-15T08:10:50;98974.97;;;6.22;64.69
58471;BME280;44258;51.288;12.068;2023-01-15T08:13:35;98978.50;;;6.23;64.80
58471;BME280;44258;51.288;12.068;2023-01-15T08:16:19;98984.78;;;6.22;65.09
58471;BME280;44258;51.288;12.068;2023-01-15T08:18:46;98990.41;;;6.17;64.95
58471;BME280;44258;51.288;12.068;2023-01-15T08:21:13;98997.06;;;6.10;64.94
58471;BME280;44258;51.288;12.068;2023-01-15T08:23:40;98987.16;;;6.12;64.32
58471;BME280;44258;51.288;12.068;2023-01-15T08:26:07;98997.06;;;6.10;64.45
58471;BME280;44258;51.288;12.068;2023-01-15T08:28:35;99002.06;;;6.00;64.98
58471;BME280;44258;51.288;12.068;2023-01-15T08:31:04;99005.34;;;6.05;64.76
58471;BME280;44258;51.288;12.068;2023-01-15T08:33:30;99008.22;;;6.17;64.29
58471;BME280;44258;51.288;12.068;2023-01-15T08:35:58;99011.50;;;6.22;64.25
58471;BME280;44258;51.288;12.068;2023-01-15T08:38:24;99026.53;;;6.23;64.02
58471;BME280;44258;51.288;12.068;2023-01-15T08:40:52;99021.41;;;6.20;64.58
58471;BME280;44258;51.288;12.068;2023-01-15T08:43:24;99018.03;;;6.16;64.18
58471;BME280;44258;51.288;12.068;2023-01-15T08:45:55;99012.16;;;6.25;64.13
58471;BME280;44258;51.288;12.068;2023-01-15T08:48:23;99013.38;;;6.20;64.21
58471;BME280;44258;51.288;12.068;2023-01-15T08:50:50;98998.50;;;6.16;64.03
58471;BME280;44258;51.288;12.068;2023-01-15T08:53:16;98995.84;;;6.16;63.96
58471;BME280;44258;51.288;12.068;2023-01-15T08:55:44;99001.34;;;6.12;64.11
58471;BME280;44258;51.288;12.068;2023-01-15T08:58:11;99013.44;;;6.04;64.26
58471;BME280;44258;51.288;12.068;2023-01-15T09:00:38;99014.13;;;6.07;64.60
58471;BME280;44258;51.288;12.068;2023-01-15T09:03:06;99015.19;;;6.19;64.33
58471;BME280;44258;51.288;12.068;2023-01-15T09:05:35;99010.00;;;6.02;64.61
58471;BME280;44258;51.288;12.068;2023-01-15T09:08:02;99019.25;;;6.10;64.51
58471;BME280;44258;51.288;12.068;2023-01-15T09:10:29;99020.22;;;6.09;64.25
58471;BME280;44258;51.288;12.068;2023-01-15T09:12:57;99030.69;;;6.12;64.51
58471;BME280;44258;51.288;12.068;2023-01-15T09:15:24;99027.94;;;6.14;64.35
58471;BME280;44258;51.288;12.068;2023-01-15T09:17:50;99036.16;;;6.11;64.18
58471;BME280;44258;51.288;12.068;2023-01-15T09:20:19;99024.91;;;6.20;64.20
58471;BME280;44258;51.288;12.068;2023-01-15T09:22:46;99028.00;;;6.28;63.64
58471;BME280;44258;51.288;12.068;2023-01-15T09:25:13;99027.59;;;6.20;63.75
58471;BME280;44258;51.288;12.068;2023-01-15T09:27:40;99037.84;;;6.12;63.26
58471;BME280;44258;51.288;12.068;2023-01-15T09:30:16;99044.44;;;6.21;63.11
58471;BME280;44258;51.288;12.068;2023-01-15T09:32:43;99041.75;;;6.37;63.33
58471;BME280;44258;51.288;12.068;2023-01-15T09:35:09;99044.03;;;6.43;63.20
58471;BME280;44258;51.288;12.068;2023-01-15T09:37:37;99047.41;;;6.16;62.76
58471;BME280;44258;51.288;12.068;2023-01-15T09:40:05;99036.06;;;6.27;62.76
58471;BME280;44258;51.288;12.068;2023-01-15T09:42:41;99054.34;;;6.19;62.03
58471;BME280;44258;51.288;12.068;2023-01-15T09:45:16;99058.19;;;6.29;61.77
58471;BME280;44258;51.288;12.068;2023-01-15T09:50:42;99061.09;;;6.10;61.43
58471;BME280;44258;51.288;12.068;2023-01-15T09:53:37;99064.50;;;6.28;61.93
58471;BME280;44258;51.288;12.068;2023-01-15T09:56:18;99056.75;;;6.53;61.13
58471;BME280;44258;51.288;12.068;2023-01-15T09:58:46;99047.34;;;6.77;60.93
58471;BME280;44258;51.288;12.068;2023-01-15T10:01:15;99054.00;;;6.55;60.84
58471;BME280;44258;51.288;12.068;2023-01-15T10:03:44;99056.66;;;6.55;60.98
58471;BME280;44258;51.288;12.068;2023-01-15T10:06:16;99060.41;;;6.67;59.80
58471;BME280;44258;51.288;12.068;2023-01-15T10:08:49;99065.09;;;6.78;59.97
58471;BME280;44258;51.288;12.068;2023-01-15T10:11:26;99067.22;;;6.87;59.76
58471;BME280;44258;51.288;12.068;2023-01-15T10:14:24;99080.00;;;6.96;58.98
58471;BME280;44258;51.288;12.068;2023-01-15T10:16:55;99080.00;;;7.10;58.75
58471;BME280;44258;51.288;12.068;2023-01-15T10:19:22;99074.66;;;7.10;58.85
58471;BME280;44258;51.288;12.068;2023-01-15T10:21:54;99076.38;;;6.97;59.32
58471;BME280;44258;51.288;12.068;2023-01-15T10:24:29;99080.00;;;6.96;59.03
58471;BME280;44258;51.288;12.068;2023-01-15T10:27:11;99083.63;;;6.95;59.13
58471;BME280;44258;51.288;12.068;2023-01-15T10:29:43;99080.75;;;7.12;58.53
58471;BME280;44258;51.288;12.068;2023-01-15T10:32:21;99079.06;;;6.97;58.57
58471;BME280;44258;51.288;12.068;2023-01-15T10:35:09;99075.91;;;6.90;58.38
58471;BME280;44258;51.288;12.068;2023-01-15T10:37:46;99067.69;;;6.93;58.60
58471;BME280;44258;51.288;12.068;2023-01-15T10:40:39;99069.13;;;6.40;59.42
58471;BME280;44258;51.288;12.068;2023-01-15T10:43:14;99072.22;;;6.63;58.83
58471;BME280;44258;51.288;12.068;2023-01-15T10:45:46;99056.19;;;6.63;58.69
58471;BME280;44258;51.288;12.068;2023-01-15T10:48:20;99041.13;;;6.62;59.24
58471;BME280;44258;51.288;12.068;2023-01-15T10:50:50;99049.22;;;6.46;58.63
58471;BME280;44258;51.288;12.068;2023-01-15T10:53:26;99046.56;;;6.60;58.43
58471;BME280;44258;51.288;12.068;2023-01-15T10:56:04;99044.44;;;6.51;58.23
58471;BME280;44258;51.288;12.068;2023-01-15T10:58:37;99046.88;;;6.70;58.15
58471;BME280;44258;51.288;12.068;2023-01-15T11:01:10;99049.00;;;6.49;58.52
58471;BME280;44258;51.288;12.068;2023-01-15T11:03:39;99039.47;;;6.45;58.84
58471;BME280;44258;51.288;12.068;2023-01-15T11:06:12;99047.44;;;6.30;58.62
58471;BME280;44258;51.288;12.068;2023-01-15T11:08:42;99048.91;;;6.36;58.24
58471;BME280;44258;51.288;12.068;2023-01-15T11:11:19;99050.16;;;6.45;58.26
58471;BME280;44258;51.288;12.068;2023-01-15T11:13:54;99051.09;;;6.29;58.50
58471;BME280;44258;51.288;12.068;2023-01-15T11:16:39;99046.72;;;6.12;58.08
58471;BME280;44258;51.288;12.068;2023-01-15T11:19:27;99060.53;;;6.49;57.98
58471;BME280;44258;51.288;12.068;2023-01-15T11:22:10;99071.78;;;6.70;57.71
58471;BME280;44258;51.288;12.068;2023-01-15T11:24:44;99072.00;;;6.51;57.77
58471;BME280;44258;51.288;12.068;2023-01-15T11:27:16;99067.25;;;6.57;56.98
58471;BME280;44258;51.288;12.068;2023-01-15T11:29:44;99063.34;;;6.48;57.69
58471;BME280;44258;51.288;12.068;2023-01-15T11:32:26;99068.31;;;6.54;57.69
58471;BME280;44258;51.288;12.068;2023-01-15T11:34:54;99074.22;;;6.59;57.88
58471;BME280;44258;51.288;12.068;2023-01-15T11:37:22;99092.50;;;6.51;58.56
58471;BME280;44258;51.288;12.068;2023-01-15T11:39:53;99096.94;;;6.66;58.36
58471;BME280;44258;51.288;12.068;2023-01-15T11:42:21;99087.44;;;6.77;57.73
58471;BME280;44258;51.288;12.068;2023-01-15T11:45:17;99106.69;;;6.82;56.96
58471;BME280;44258;51.288;12.068;2023-01-15T11:48:12;99111.28;;;6.80;57.03
58471;BME280;44258;51.288;12.068;2023-01-15T11:51:02;99105.84;;;6.81;56.89
58471;BME280;44258;51.288;12.068;2023-01-15T11:53:34;99097.91;;;6.80;56.52
58471;BME280;44258;51.288;12.068;2023-01-15T11:56:05;99102.50;;;6.78;55.75
58471;BME280;44258;51.288;12.068;2023-01-15T11:58:40;99107.44;;;6.69;56.39
58471;BME280;44258;51.288;12.068;2023-01-15T12:01:11;99107.69;;;6.50;56.44
58471;BME280;44258;51.288;12.068;2023-01-15T12:03:39;99113.84;;;6.67;56.49
58471;BME280;44258;51.288;12.068;2023-01-15T12:06:08;99103.16;;;6.81;56.06
58471;BME280;44258;51.288;12.068;2023-01-15T12:08:46;99118.13;;;6.69;56.18
58471;BME280;44258;51.288;12.068;2023-01-15T12:11:30;99125.66;;;6.63;57.16
58471;BME280;44258;51.288;12.068;2023-01-15T12:14:30;99109.59;;;6.48;56.85
58471;BME280;44258;51.288;12.068;2023-01-15T12:17:12;99112.31;;;6.77;56.51
58471;BME280;44258;51.288;12.068;2023-01-15T12:19:51;99108.06;;;6.89;56.65
58471;BME280;44258;51.288;12.068;2023-01-15T12:22:42;99103.03;;;6.54;56.61
58471;BME280;44258;51.288;12.068;2023-01-15T12:25:32;99096.63;;;6.57;56.34
58471;BME280;44258;51.288;12.068;2023-01-15T12:28:05;99092.34;;;6.54;55.70
58471;BME280;44258;51.288;12.068;2023-01-15T12:30:41;99082.44;;;6.56;55.74
58471;BME280;44258;51.288;12.068;2023-01-15T12:33:17;99078.03;;;6.55;56.14
58471;BME280;44258;51.288;12.068;2023-01-15T12:35:50;99068.28;;;6.40;56.40
58471;BME280;44258;51.288;12.068;2023-01-15T12:38:25;99070.28;;;6.50;56.14
58471;BME280;44258;51.288;12.068;2023-01-15T12:40:58;99074.09;;;6.46;56.60
58471;BME280;44258;51.288;12.068;2023-01-15T12:43:27;99084.88;;;6.45;56.02
58471;BME280;44258;51.288;12.068;2023-01-15T12:46:17;99081.34;;;6.44;56.38
58471;BME280;44258;51.288;12.068;2023-01-15T12:48:49;99081.06;;;6.49;56.89
58471;BME280;44258;51.288;12.068;2023-01-15T12:51:22;99093.88;;;6.58;55.83
58471;BME280;44258;51.288;12.068;2023-01-15T12:53:54;99091.91;;;6.31;56.16
58471;BME280;44258;51.288;12.068;2023-01-15T12:56:26;99093.56;;;6.48;56.06
58471;BME280;44258;51.288;12.068;2023-01-15T12:58:59;99067.56;;;6.66;55.77
58471;BME280;44258;51.288;12.068;2023-01-15T13:01:35;99054.66;;;6.59;55.81
58471;BME280;44258;51.288;12.068;2023-01-15T13:04:11;99061.06;;;6.26;56.20
58471;BME280;44258;51.288;12.068;2023-01-15T13:06:43;99067.72;;;6.49;55.60
58471;BME280;44258;51.288;12.068;2023-01-15T13:09:20;99078.13;;;6.23;56.22
58471;BME280;44258;51.288;12.068;2023-01-15T13:11:48;99096.91;;;6.52;56.17
58471;BME280;44258;51.288;12.068;2023-01-15T13:14:15;99096.25;;;6.63;55.46
58471;BME280;44258;51.288;12.068;2023-01-15T13:16:48;99103.69;;;6.58;55.91
58471;BME280;44258;51.288;12.068;2023-01-15T13:19:33;99111.00;;;6.40;56.23
58471;BME280;44258;51.288;12.068;2023-01-15T13:22:07;99106.19;;;6.30;56.04
58471;BME280;44258;51.288;12.068;2023-01-15T13:25:04;99099.00;;;6.31;55.73
58471;BME280;44258;51.288;12.068;2023-01-15T13:27:45;99113.97;;;6.49;56.33